Terminal Aerodrome Forecast
Issued by NWS New Orleans/Baton Rouge, LA

Home | Current Version | Previous Version | Text Only | Print | Product List | Glossary On
Versions: 1 2 3 4 5 6 7 8 9 10 11 12 13 14 15 16
000
FTUS44 KLIX 241720
TAFNEW
TAF
KNEW 241720Z 2418/2518 15019G28KT P6SM BKN035
     FM242300 14017G25KT P6SM BKN030
     FM250800 16012KT P6SM BKN025
     FM251000 16011KT P6SM VCTS OVC015CB
     FM251200 17011KT 3SM -TSRA BR BKN020CB=

USA.gov is the U.S. government's official web portal to all federal, state and local government web resources and services.